Terminal Aerodrome Forecast
Issued by NWS

Home | Current Version | Previous Version | Text Only | Print | Product List | Glossary On
Versions: 1 2 3 4 5 6 7 8 9 10 11 12 13 14 15 16 17 18 19 20
000
FTUS43 KJKL 160522
TAFSME
TAF
KSME 160522Z 1606/1706 24015G24KT P6SM OVC030
     FM160900 24013G22KT P6SM -SHRA OVC015
     FM161200 27010KT 3SM SHRA OVC010
     FM161500 32010KT 3SM SHRA OVC008
     FM162100 34007KT P6SM VCSH OVC015=

USA.gov is the U.S. government's official web portal to all federal, state and local government web resources and services.